Time;durP1;ratioP1;P1;durP2;ratioP2;P2;SDS_P1;SDS_P2;PMS_P1;PMS_P2;Temp;Humidity;BMP_temperature;BMP_pressure;BME280_temperature;BME280_humidity;BME280_pressure;Samples;Min_cycle;Max_cycle;Signal;HPM_P1;HPM_P2
2021/03/21 00:01:10;;;;;;;4.10;1.98;;;;;;;-139.48;100.00;61774.03;5018109;28;20080;-70
2021/03/21 00:03:54;;;;;;;3.92;2.17;;;;;;;-139.48;100.00;61774.03;5033239;28;20088;-70
2021/03/21 00:06:39;;;;;;;8.13;3.13;;;;;;;-139.48;100.00;61774.03;5017610;28;20510;-70
2021/03/21 00:09:23;;;;;;;9.38;4.72;;;;;;;-139.48;100.00;61774.03;5018007;28;20123;-70
2021/03/21 00:12:08;;;;;;;2.97;2.22;;;;;;;-139.48;100.00;61774.03;5003804;28;20143;-70
2021/03/21 00:14:52;;;;;;;7.85;2.00;;;;;;;-139.48;100.00;61774.03;5032823;28;20469;-70
2021/03/21 00:17:36;;;;;;;7.50;4.68;;;;;;;-139.48;100.00;61774.03;5003728;28;20052;-70
2021/03/21 00:20:31;;;;;;;2.72;1.85;;;;;;;-139.48;100.00;61774.03;5017957;28;20124;-70
2021/03/21 00:23:17;;;;;;;9.07;4.00;;;;;;;-139.48;100.00;61774.03;5019927;28;20052;-70
2021/03/21 00:26:01;;;;;;;3.28;2.22;;;;;;;-139.48;100.00;61774.03;5021112;28;20040;-70
2021/03/21 00:28:45;;;;;;;4.35;2.75;;;;;;;-139.48;100.00;61774.03;5021230;28;20147;-70
2021/03/21 00:31:29;;;;;;;2.70;1.80;;;;;;;-139.48;100.00;61774.03;5036115;28;20167;-70
2021/03/21 00:34:13;;;;;;;5.65;3.25;;;;;;;-139.48;100.00;61774.03;5021031;28;20472;-70
2021/03/21 00:36:57;;;;;;;7.45;4.47;;;;;;;-139.48;100.00;61774.03;5007036;28;20049;-70
2021/03/21 00:39:41;;;;;;;7.70;4.38;;;;;;;-139.48;100.00;61774.03;5021211;28;20521;-69
2021/03/21 00:42:24;;;;;;;9.43;4.93;;;;;;;-139.48;100.00;61774.03;5036166;28;20051;-70
2021/03/21 00:45:09;;;;;;;9.35;5.70;;;;;;;-139.48;100.00;61774.03;5020917;28;20056;-70
2021/03/21 00:47:54;;;;;;;9.95;5.45;;;;;;;-139.48;100.00;61774.03;5035716;28;20624;-69
2021/03/21 00:50:38;;;;;;;11.52;6.57;;;;;;;-139.48;100.00;61774.03;5006943;28;20140;-70
2021/03/21 00:53:23;;;;;;;9.50;6.70;;;;;;;-139.48;100.00;61774.03;5020944;28;20086;-70
2021/03/21 00:56:08;;;;;;;10.40;5.57;;;;;;;-139.48;100.00;61774.03;5006648;28;20471;-70
2021/03/21 00:58:52;;;;;;;14.25;5.32;;;;;;;-139.48;100.00;61774.03;5035870;28;20533;-70
2021/03/21 01:01:36;;;;;;;12.55;5.97;;;;;;;-139.48;100.00;61774.03;5020842;28;20044;-70
2021/03/21 01:04:21;;;;;;;11.90;6.07;;;;;;;-139.48;100.00;61774.03;5035484;28;20052;-70
2021/03/21 01:07:05;;;;;;;10.23;7.10;;;;;;;-139.48;100.00;61774.03;5006536;28;20128;-70
2021/03/21 01:09:49;;;;;;;8.82;5.97;;;;;;;-139.48;100.00;61774.03;5035383;28;20409;-69
2021/03/21 01:12:34;;;;;;;10.80;5.60;;;;;;;-139.48;100.00;61774.03;5035654;28;20594;-68
2021/03/21 01:15:19;;;;;;;9.57;6.30;;;;;;;-139.48;100.00;61774.03;5006713;28;20052;-70
2021/03/21 01:18:04;;;;;;;10.20;6.22;;;;;;;-139.48;100.00;61774.03;5020337;28;20060;-69
2021/03/21 01:20:48;;;;;;;10.25;6.00;;;;;;;-139.48;100.00;61774.03;5035516;28;20238;-70
2021/03/21 01:23:32;;;;;;;10.48;6.43;;;;;;;-139.48;100.00;61774.03;5020157;28;20048;-70
2021/03/21 01:26:19;;;;;;;13.15;6.65;;;;;;;-139.48;100.00;61774.03;5035236;28;20056;-70
2021/03/21 01:29:04;;;;;;;9.65;6.03;;;;;;;-139.48;100.00;61774.03;5020045;28;20052;-70
2021/03/21 01:31:48;;;;;;;10.55;6.95;;;;;;;-139.48;100.00;61774.03;5019993;28;20071;-70
2021/03/21 01:34:32;;;;;;;10.43;5.82;;;;;;;-139.48;100.00;61774.03;5034836;28;20057;-70
2021/03/21 01:37:16;;;;;;;12.32;7.60;;;;;;;-139.48;100.00;61774.03;5035066;28;20053;-70
2021/03/21 01:40:00;;;;;;;13.00;6.18;;;;;;;-139.48;100.00;61774.03;5020122;28;20052;-70
2021/03/21 01:42:47;;;;;;;14.35;7.60;;;;;;;-139.48;100.00;61774.03;5035045;28;20107;-70
2021/03/21 01:45:39;;;;;;;10.02;6.53;;;;;;;-139.48;100.00;61774.03;5019774;28;20505;-70
2021/03/21 01:48:32;;;;;;;12.95;6.57;;;;;;;-139.48;100.00;61774.03;5034631;28;20418;-68
2021/03/21 01:51:21;;;;;;;9.50;6.15;;;;;;;-139.48;100.00;61774.03;5034877;28;20115;-70
2021/03/21 01:54:08;;;;;;;9.30;5.85;;;;;;;-139.48;100.00;61774.03;5019900;28;20183;-70
2021/03/21 01:56:53;;;;;;;12.55;6.75;;;;;;;-139.48;100.00;61774.03;5005657;28;20052;-70
2021/03/21 01:59:37;;;;;;;8.80;5.80;;;;;;;-139.48;100.00;61774.03;5019721;28;20140;-69
2021/03/21 02:02:22;;;;;;;11.13;6.82;;;;;;;-139.48;100.00;61774.03;5034397;28;20512;-70
2021/03/21 02:05:07;;;;;;;9.90;6.18;;;;;;;-139.48;100.00;61774.03;5019676;28;20473;-70
2021/03/21 02:08:00;;;;;;;11.05;6.20;;;;;;;-139.48;100.00;61774.03;5019281;28;20080;-70
2021/03/21 02:10:51;;;;;;;10.40;6.32;;;;;;;-139.48;100.00;61774.03;5019293;28;20044;-69
2021/03/21 02:13:55;;;;;;;11.63;6.65;;;;;;;-139.48;100.00;61774.03;5034385;28;20176;-69
2021/03/21 02:16:43;;;;;;;9.60;6.80;;;;;;;-139.48;100.00;61774.03;5033984;28;20129;-70
2021/03/21 02:19:44;;;;;;;12.75;6.88;;;;;;;-139.48;100.00;61774.03;5019439;28;20469;-70
2021/03/21 02:22:33;;;;;;;11.27;6.50;;;;;;;-139.48;100.00;61774.03;5019101;28;20115;-69
2021/03/21 02:25:40;;;;;;;13.20;7.10;;;;;;;-139.48;100.00;61774.03;5034277;28;20056;-70
2021/03/21 02:28:31;;;;;;;11.32;7.22;;;;;;;-139.48;100.00;61774.03;5005380;28;20104;-69
2021/03/21 02:31:22;;;;;;;10.77;6.90;;;;;;;-139.48;100.00;61774.03;5005045;28;20044;-69
2021/03/21 02:34:11;;;;;;;13.13;6.97;;;;;;;-139.48;100.00;61774.03;5019046;28;20048;-70
2021/03/21 02:37:00;;;;;;;13.85;7.32;;;;;;;-139.48;100.00;61774.03;5018979;28;20564;-70
2021/03/21 02:39:54;;;;;;;11.70;6.78;;;;;;;-139.48;100.00;61774.03;5019280;28;20063;-69
2021/03/21 02:42:46;;;;;;;12.77;6.65;;;;;;;-139.48;100.00;61774.03;5019075;28;20048;-70
2021/03/21 02:45:32;;;;;;;10.68;6.65;;;;;;;-139.48;100.00;61774.03;5018278;28;20449;-69
2021/03/21 02:48:22;;;;;;;13.82;6.55;;;;;;;-139.48;100.00;61774.03;5018980;28;20048;-69
2021/03/21 02:51:12;;;;;;;12.13;6.80;;;;;;;-139.48;100.00;61774.03;5018855;28;20536;-70
2021/03/21 02:54:35;;;;;;;11.35;6.40;;;;;;;-139.48;100.00;61774.03;5018865;28;20044;-70
2021/03/21 02:57:23;;;;;;;10.15;6.53;;;;;;;-139.48;100.00;61774.03;5014541;28;20053;-68
2021/03/21 03:00:08;;;;;;;9.70;6.50;;;;;;;-139.48;100.00;61774.03;5018428;28;20055;-70
2021/03/21 03:02:56;;;;;;;15.45;6.40;;;;;;;-139.48;100.00;61774.03;5018366;28;20236;-69
2021/03/21 03:05:48;;;;;;;10.45;6.70;;;;;;;-139.48;100.00;61774.03;5018545;28;20573;-70
2021/03/21 03:08:43;;;;;;;10.38;6.25;;;;;;;-139.48;100.00;61774.03;5015519;23;20137;-68
2021/03/21 03:11:55;;;;;;;9.70;6.45;;;;;;;-139.48;100.00;61774.03;4992887;28;20053;-68
2021/03/21 03:14:41;;;;;;;9.55;5.78;;;;;;;-139.48;100.00;61774.03;4992779;28;20049;-67
2021/03/21 03:17:30;;;;;;;9.48;6.15;;;;;;;-139.48;100.00;61774.03;4992699;28;20084;-69
2021/03/21 03:20:35;;;;;;;10.15;5.72;;;;;;;-139.48;100.00;61774.03;5006873;28;20053;-68
2021/03/21 03:23:40;;;;;;;11.70;6.47;;;;;;;-139.48;100.00;61774.03;4994345;28;20056;-69
2021/03/21 03:26:32;;;;;;;8.55;5.97;;;;;;;-139.48;100.00;61774.03;5006613;28;20048;-69
2021/03/21 03:29:28;;;;;;;14.95;6.28;;;;;;;-139.48;100.00;61774.03;5007198;28;20193;-68
2021/03/21 03:32:14;;;;;;;8.30;5.78;;;;;;;-139.48;100.00;61774.03;4992851;28;20045;-68
2021/03/21 03:34:58;;;;;;;8.45;5.72;;;;;;;-139.48;100.00;61774.03;5006694;28;20112;-68
2021/03/21 03:37:42;;;;;;;8.57;5.45;;;;;;;-139.48;100.00;61774.03;4992583;28;20108;-68
2021/03/21 03:40:26;;;;;;;10.55;5.88;;;;;;;-139.48;100.00;61774.03;5007002;28;20061;-68
2021/03/21 03:43:15;;;;;;;12.20;6.13;;;;;;;-139.48;100.00;61774.03;4993773;28;20053;-68
2021/03/21 03:46:23;;;;;;;10.55;5.70;;;;;;;-139.48;100.00;61774.03;4993589;28;20074;-69
2021/03/21 03:49:27;;;;;;;9.73;5.72;;;;;;;-139.48;100.00;61774.03;5006656;28;20096;-69
2021/03/21 03:52:27;;;;;;;7.93;5.45;;;;;;;-139.48;100.00;61774.03;4993843;28;20093;-69
2021/03/21 03:55:17;;;;;;;8.80;5.90;;;;;;;-139.48;100.00;61774.03;4992821;28;20100;-67
2021/03/21 03:58:10;;;;;;;10.15;6.07;;;;;;;-139.48;100.00;61774.03;5009655;28;20090;-69
2021/03/21 04:01:04;;;;;;;9.82;5.57;;;;;;;-139.48;100.00;61774.03;5010443;28;20111;-68
2021/03/21 04:03:54;;;;;;;12.82;6.45;;;;;;;-139.48;100.00;61774.03;4996331;28;20050;-67
2021/03/21 04:07:00;;;;;;;10.75;6.43;;;;;;;-139.48;100.00;61774.03;5010179;28;20045;-68
2021/03/21 04:09:52;;;;;;;10.18;6.00;;;;;;;-139.48;100.00;61774.03;4996477;28;20077;-67
2021/03/21 04:12:41;;;;;;;12.70;6.93;;;;;;;-139.48;100.00;61774.03;4996169;28;20097;-68
2021/03/21 04:15:27;;;;;;;11.40;7.30;;;;;;;-139.48;100.00;61774.03;4996081;28;20069;-69
2021/03/21 04:18:38;;;;;;;16.80;7.88;;;;;;;-139.48;100.00;61774.03;5010357;28;20049;-69
2021/03/21 04:21:41;;;;;;;13.93;8.05;;;;;;;-139.48;100.00;61774.03;5010068;28;20049;-68
2021/03/21 04:24:56;;;;;;;12.90;7.63;;;;;;;-139.48;100.00;61774.03;4997190;28;20045;-69
2021/03/21 04:28:12;;;;;;;12.38;7.82;;;;;;;-139.48;100.00;61774.03;5009916;28;20053;-69
2021/03/21 04:30:58;;;;;;;12.05;8.00;;;;;;;-139.48;100.00;61774.03;4997083;28;20101;-69
2021/03/21 04:33:45;;;;;;;13.02;8.30;;;;;;;-139.48;100.00;61774.03;4996003;28;20188;-69
2021/03/21 04:36:34;;;;;;;14.82;8.63;;;;;;;-139.48;100.00;61774.03;4995896;28;20069;-67
2021/03/21 04:39:23;;;;;;;12.63;7.65;;;;;;;-139.48;100.00;61774.03;5009711;28;20100;-69
2021/03/21 04:42:09;;;;;;;14.80;8.50;;;;;;;-139.48;100.00;61774.03;4995835;28;20085;-69
2021/03/21 04:44:59;;;;;;;13.20;8.20;;;;;;;-139.48;100.00;61774.03;5009421;28;20049;-69
2021/03/21 04:47:50;;;;;;;17.40;9.75;;;;;;;-139.48;100.00;61774.03;4995696;28;20041;-69
2021/03/21 04:50:34;;;;;;;14.65;8.77;;;;;;;-139.48;100.00;61774.03;5009235;28;20157;-68
2021/03/21 04:53:27;;;;;;;15.20;8.90;;;;;;;-139.48;100.00;61774.03;4996370;28;20061;-70
2021/03/21 04:56:25;;;;;;;16.25;9.05;;;;;;;-139.48;100.00;61774.03;5009378;28;20142;-68
2021/03/21 04:59:14;;;;;;;16.95;9.88;;;;;;;-139.48;100.00;61774.03;4995400;28;20048;-69
2021/03/21 05:02:15;;;;;;;16.08;8.90;;;;;;;-139.48;100.00;61774.03;4996198;28;20077;-67
2021/03/21 05:05:08;;;;;;;16.13;8.75;;;;;;;-139.48;100.00;61774.03;5009294;28;20598;-69
2021/03/21 05:08:13;;;;;;;13.57;8.85;;;;;;;-139.48;100.00;61774.03;5008144;28;20122;-69
2021/03/21 05:10:59;;;;;;;13.65;8.68;;;;;;;-139.48;100.00;61774.03;4995332;28;20498;-69
2021/03/21 05:13:51;;;;;;;17.60;9.15;;;;;;;-139.48;100.00;61774.03;5009117;28;20459;-67
2021/03/21 05:17:00;;;;;;;12.20;8.82;;;;;;;-139.48;100.00;61774.03;5008867;28;20049;-69
2021/03/21 05:19:57;;;;;;;13.40;8.77;;;;;;;-139.48;100.00;61774.03;5009022;28;20149;-70
2021/03/21 05:22:43;;;;;;;12.07;8.88;;;;;;;-139.48;100.00;61774.03;4995098;28;20053;-69
2021/03/21 05:25:36;;;;;;;14.30;8.80;;;;;;;-139.48;100.00;61774.03;5008837;28;20049;-69
2021/03/21 05:28:48;;;;;;;12.95;8.52;;;;;;;-139.48;100.00;61774.03;4994745;28;20084;-69
2021/03/21 05:31:32;;;;;;;10.95;7.35;;;;;;;-139.48;100.00;61774.03;4995917;28;20053;-68
2021/03/21 05:34:17;;;;;;;15.38;9.00;;;;;;;-139.48;100.00;61774.03;5008477;28;20466;-68
2021/03/21 05:37:46;;;;;;;13.38;8.68;;;;;;;-139.48;100.00;61774.03;4994603;28;20053;-69
2021/03/21 05:41:04;;;;;;;14.68;8.77;;;;;;;-139.48;100.00;61774.03;4994792;28;20176;-69
2021/03/21 05:44:17;;;;;;;10.98;7.38;;;;;;;-139.48;100.00;61774.03;4995680;28;20049;-69
2021/03/21 05:47:19;;;;;;;11.07;7.30;;;;;;;-139.48;100.00;61774.03;4995599;28;20037;-69
2021/03/21 05:50:31;;;;;;;11.98;8.23;;;;;;;-139.48;100.00;61774.03;4995643;28;20065;-68
2021/03/21 05:53:33;;;;;;;12.07;7.93;;;;;;;-139.48;100.00;61774.03;4995556;28;20121;-68
2021/03/21 05:56:55;;;;;;;13.07;9.27;;;;;;;-139.48;100.00;61774.03;4995184;28;20045;-68
2021/03/21 05:59:57;;;;;;;13.65;8.30;;;;;;;-139.48;100.00;61774.03;4995311;28;20093;-67
2021/03/21 06:02:53;;;;;;;11.40;7.57;;;;;;;-139.48;100.00;61774.03;4995127;28;20498;-70
2021/03/21 06:06:15;;;;;;;12.68;7.78;;;;;;;-139.48;100.00;61774.03;5008122;28;20542;-68
2021/03/21 06:09:18;;;;;;;12.95;7.55;;;;;;;-139.48;100.00;61774.03;4994960;28;20138;-68
2021/03/21 06:12:21;;;;;;;12.43;7.72;;;;;;;-139.48;100.00;61774.03;4995231;28;20167;-69
2021/03/21 06:15:12;;;;;;;16.67;8.52;;;;;;;-139.48;100.00;61774.03;4994297;28;20406;-67
2021/03/21 06:18:11;;;;;;;13.32;7.05;;;;;;;-139.48;100.00;61774.03;4995253;28;20411;-68
2021/03/21 06:21:10;;;;;;;10.80;6.60;;;;;;;-139.48;100.00;61774.03;4997323;28;20129;-70
2021/03/21 06:24:24;;;;;;;12.88;7.20;;;;;;;-139.48;100.00;61774.03;5011557;28;20124;-69
2021/03/21 06:27:21;;;;;;;7.97;5.53;;;;;;;-139.48;100.00;61774.03;4994914;28;20638;-68
2021/03/21 06:30:31;;;;;;;11.75;7.20;;;;;;;-139.48;100.00;61774.03;4994960;28;20422;-69
2021/03/21 06:33:19;;;;;;;11.95;7.90;;;;;;;-139.48;100.00;61774.03;4993857;28;20080;-69
2021/03/21 06:36:22;;;;;;;11.90;7.43;;;;;;;-139.48;100.00;61774.03;5007309;28;20133;-69
2021/03/21 06:39:24;;;;;;;11.15;7.00;;;;;;;-139.48;100.00;61774.03;4994407;28;20105;-69
2021/03/21 06:42:27;;;;;;;10.07;7.10;;;;;;;-139.48;100.00;61774.03;4994365;28;20133;-69
2021/03/21 06:45:17;;;;;;;15.95;8.40;;;;;;;-139.48;100.00;61774.03;4994691;28;20049;-69
2021/03/21 06:48:23;;;;;;;14.13;8.15;;;;;;;-139.48;100.00;61774.03;4993480;28;20057;-69
2021/03/21 06:51:26;;;;;;;14.32;7.75;;;;;;;-139.48;100.00;61774.03;4993534;28;20108;-69
2021/03/21 06:54:31;;;;;;;9.65;6.55;;;;;;;-139.48;100.00;61774.03;4994127;28;20523;-69
2021/03/21 06:57:35;;;;;;;12.20;7.30;;;;;;;-139.48;100.00;61774.03;4979460;28;20045;-69
2021/03/21 07:00:41;;;;;;;10.63;7.50;;;;;;;-139.48;100.00;61774.03;4978911;28;20096;-69
2021/03/21 07:03:40;;;;;;;10.82;7.13;;;;;;;-139.48;100.00;61774.03;4994038;28;20053;-69
2021/03/21 07:06:46;;;;;;;10.10;6.55;;;;;;;-139.48;100.00;61774.03;5006998;28;20093;-69
2021/03/21 07:09:39;;;;;;;13.10;7.22;;;;;;;-139.48;100.00;61774.03;4992955;28;20126;-69
2021/03/21 07:12:33;;;;;;;10.20;6.70;;;;;;;-139.48;100.00;61774.03;4994221;28;20096;-69
2021/03/21 07:15:39;;;;;;;9.98;7.05;;;;;;;-139.48;100.00;61774.03;4994377;28;20459;-68
2021/03/21 07:18:53;;;;;;;10.30;6.80;;;;;;;-139.48;100.00;61774.03;4993083;28;20049;-67
2021/03/21 07:22:14;;;;;;;11.63;7.07;;;;;;;-139.48;100.00;61774.03;4994093;28;20053;-69
2021/03/21 07:25:19;;;;;;;11.82;6.47;;;;;;;-139.48;100.00;61774.03;4964048;28;20053;-69
2021/03/21 07:28:19;;;;;;;11.55;6.93;;;;;;;-139.48;100.00;61774.03;5006775;28;20102;-68
2021/03/21 07:31:27;;;;;;;10.25;6.38;;;;;;;-139.48;100.00;61774.03;4994157;28;20530;-69
2021/03/21 07:34:50;;;;;;;10.50;6.35;;;;;;;-139.48;100.00;61774.03;4997430;28;20129;-69
2021/03/21 07:38:12;;;;;;;9.82;6.43;;;;;;;-139.48;100.00;61774.03;4968986;28;20048;-69
2021/03/21 07:41:03;;;;;;;10.18;5.93;;;;;;;-139.48;100.00;61774.03;4996792;28;20415;-69
2021/03/21 07:43:53;;;;;;;8.98;6.20;;;;;;;-139.48;100.00;61774.03;4996162;28;20049;-69
2021/03/21 07:46:52;;;;;;;9.65;6.05;;;;;;;-139.48;100.00;61774.03;4997482;28;20076;-69
2021/03/21 07:50:03;;;;;;;9.82;5.07;;;;;;;-139.48;100.00;61774.03;4997258;28;20053;-69
2021/03/21 07:53:02;;;;;;;8.68;5.55;;;;;;;-139.48;100.00;61774.03;5010019;28;20402;-69
2021/03/21 07:55:57;;;;;;;10.82;6.38;;;;;;;-139.48;100.00;61774.03;4996005;28;20104;-69
2021/03/21 07:58:46;;;;;;;8.30;6.18;;;;;;;-139.48;100.00;61774.03;5009129;28;20052;-69
2021/03/21 08:01:30;;;;;;;10.27;6.43;;;;;;;-139.48;100.00;61774.03;4995773;28;20084;-69
2021/03/21 08:04:31;;;;;;;11.60;7.70;;;;;;;-139.48;100.00;61774.03;4996967;28;20101;-69
2021/03/21 08:07:22;;;;;;;11.73;6.80;;;;;;;-139.48;100.00;61774.03;4996691;28;20092;-69
2021/03/21 08:10:20;;;;;;;8.38;6.07;;;;;;;-139.48;100.00;61774.03;5009679;28;20126;-69
2021/03/21 08:13:11;;;;;;;10.00;6.43;;;;;;;-139.48;100.00;61774.03;4995718;28;20427;-69
2021/03/21 08:15:55;;;;;;;11.20;6.82;;;;;;;-139.48;100.00;61774.03;4996454;28;20077;-69
2021/03/21 08:18:40;;;;;;;8.13;5.55;;;;;;;-139.48;100.00;61774.03;4996338;28;20048;-69
2021/03/21 08:21:28;;;;;;;10.63;6.80;;;;;;;-139.48;100.00;61774.03;4996616;28;20502;-69
2021/03/21 08:24:34;;;;;;;9.52;6.13;;;;;;;-139.48;100.00;61774.03;4995466;28;20450;-69
2021/03/21 08:27:31;;;;;;;8.07;5.95;;;;;;;-139.48;100.00;61774.03;4996063;28;20141;-69
2021/03/21 08:30:16;;;;;;;9.13;6.15;;;;;;;-139.48;100.00;61774.03;4996213;28;20616;-69
2021/03/21 08:33:03;;;;;;;9.70;6.35;;;;;;;-139.48;100.00;61774.03;5009110;28;20418;-69
2021/03/21 08:36:06;;;;;;;10.30;6.03;;;;;;;-139.48;100.00;61774.03;5008912;28;20057;-69
2021/03/21 08:38:57;;;;;;;13.10;6.20;;;;;;;-139.48;100.00;61774.03;4995806;28;20053;-69
2021/03/21 08:41:52;;;;;;;10.07;5.88;;;;;;;-139.48;100.00;61774.03;4996084;28;20045;-69
2021/03/21 08:44:41;;;;;;;10.63;6.38;;;;;;;-139.48;100.00;61774.03;5007591;28;20108;-67
2021/03/21 08:47:28;;;;;;;9.13;6.07;;;;;;;-139.48;100.00;61774.03;5008836;28;20128;-68
2021/03/21 08:50:31;;;;;;;8.55;5.53;;;;;;;-139.48;100.00;61774.03;4994717;28;20077;-68
2021/03/21 08:53:35;;;;;;;9.60;6.68;;;;;;;-139.48;100.00;61774.03;4994815;28;20065;-70
2021/03/21 08:56:25;;;;;;;7.50;4.43;;;;;;;-139.48;100.00;61774.03;5008641;28;20077;-69
2021/03/21 08:59:36;;;;;;;9.98;6.45;;;;;;;-139.48;100.00;61774.03;5008250;28;20178;-69
2021/03/21 09:02:37;;;;;;;9.68;6.07;;;;;;;-139.48;100.00;61774.03;5008188;28;20046;-68
2021/03/21 09:05:23;;;;;;;10.52;6.18;;;;;;;-139.48;100.00;61774.03;4995630;28;20123;-70
2021/03/21 09:08:07;;;;;;;8.82;6.32;;;;;;;-139.48;100.00;61774.03;5023994;23;20057;-69
2021/03/21 09:10:57;;;;;;;12.55;6.65;;;;;;;-139.48;100.00;61774.03;5033865;28;20087;-68
2021/03/21 09:13:41;;;;;;;11.25;6.68;;;;;;;-139.48;100.00;61774.03;5019862;28;20509;-68
2021/03/21 09:16:25;;;;;;;11.05;6.00;;;;;;;-139.48;100.00;61774.03;5019537;28;20449;-68
2021/03/21 09:19:16;;;;;;;10.27;6.75;;;;;;;-139.48;100.00;61774.03;5033782;28;20255;-68
2021/03/21 09:22:11;;;;;;;10.73;6.95;;;;;;;-139.48;100.00;61774.03;5033618;28;20080;-69
2021/03/21 09:24:58;;;;;;;10.55;7.10;;;;;;;-139.48;100.00;61774.03;5005496;28;20425;-68
2021/03/21 09:27:43;;;;;;;11.00;6.18;;;;;;;-139.48;100.00;61774.03;5019441;28;20084;-69
2021/03/21 09:30:40;;;;;;;10.25;7.45;;;;;;;-139.48;100.00;61774.03;5019539;28;20048;-69
2021/03/21 09:33:41;;;;;;;11.20;7.05;;;;;;;-139.48;100.00;61774.03;5033232;28;20049;-71
2021/03/21 09:36:33;;;;;;;10.00;6.93;;;;;;;-139.48;100.00;61774.03;5033304;28;20064;-68
2021/03/21 09:39:21;;;;;;;9.93;7.07;;;;;;;-139.48;100.00;61774.03;5019249;28;20043;-69
2021/03/21 09:42:10;;;;;;;9.13;6.70;;;;;;;-139.48;100.00;61774.03;5019291;28;20163;-69
2021/03/21 09:44:54;;;;;;;13.00;7.05;;;;;;;-139.48;100.00;61774.03;5019264;28;20095;-68
2021/03/21 09:47:46;;;;;;;10.93;7.47;;;;;;;-139.48;100.00;61774.03;5032969;28;20064;-68
2021/03/21 09:50:45;;;;;;;11.60;7.40;;;;;;;-139.48;100.00;61774.03;5033898;28;20056;-67
2021/03/21 09:53:48;;;;;;;8.82;6.65;;;;;;;-139.48;100.00;61774.03;5032734;28;20040;-68
2021/03/21 09:56:46;;;;;;;11.05;7.40;;;;;;;-139.48;100.00;61774.03;5033708;28;20414;-68
2021/03/21 10:00:25;;;;;;;11.98;7.40;;;;;;;-139.48;100.00;61774.03;5032588;28;20053;-68
2021/03/21 10:03:23;;;;;;;14.90;7.18;;;;;;;-139.48;100.00;61774.03;5033883;28;20087;-68
2021/03/21 10:06:24;;;;;;;11.02;7.38;;;;;;;-139.48;100.00;61774.03;5032733;28;20079;-70
2021/03/21 10:09:10;;;;;;;9.85;6.82;;;;;;;-139.48;100.00;61774.03;5018378;28;20045;-70
2021/03/21 10:12:04;;;;;;;11.73;7.03;;;;;;;-139.48;100.00;61774.03;5032734;28;20052;-70
2021/03/21 10:15:06;;;;;;;10.27;7.75;;;;;;;-139.48;100.00;61774.03;5032692;28;20106;-70
2021/03/21 10:17:54;;;;;;;10.80;7.15;;;;;;;-139.48;100.00;61774.03;5032228;28;20103;-70
2021/03/21 10:21:03;;;;;;;12.27;8.20;;;;;;;-139.48;100.00;61774.03;5033565;28;20047;-70
2021/03/21 10:23:47;;;;;;;12.35;8.30;;;;;;;-139.48;100.00;61774.03;5033264;28;20060;-70
2021/03/21 10:26:32;;;;;;;12.77;7.35;;;;;;;-139.48;100.00;61774.03;5033219;28;20049;-67
2021/03/21 10:29:22;;;;;;;14.25;7.43;;;;;;;-139.48;100.00;61774.03;5032111;28;20450;-67
2021/03/21 10:32:26;;;;;;;13.07;7.88;;;;;;;-139.48;100.00;61774.03;5018396;28;20047;-70
2021/03/21 10:35:33;;;;;;;12.77;7.93;;;;;;;-139.48;100.00;61774.03;5033171;28;20048;-69
2021/03/21 10:38:49;;;;;;;13.90;8.60;;;;;;;-139.48;100.00;61774.03;5032905;28;20068;-70
2021/03/21 10:42:02;;;;;;;11.93;8.07;;;;;;;-139.48;100.00;61774.03;5033173;28;20087;-70
2021/03/21 10:44:48;;;;;;;12.88;8.18;;;;;;;-139.48;100.00;61774.03;5031905;28;20084;-70
2021/03/21 10:47:35;;;;;;;12.18;7.97;;;;;;;-139.48;100.00;61774.03;5033062;28;20043;-70
2021/03/21 10:50:45;;;;;;;12.32;7.07;;;;;;;-139.48;100.00;61774.03;5018133;28;20414;-68
2021/03/21 10:53:38;;;;;;;14.52;8.15;;;;;;;-139.48;100.00;61774.03;5032917;28;20091;-70
2021/03/21 10:56:22;;;;;;;14.68;8.82;;;;;;;-139.48;100.00;61774.03;5017761;28;20095;-70
2021/03/21 10:59:09;;;;;;;9.77;6.43;;;;;;;-139.48;100.00;61774.03;5032687;28;20139;-70
2021/03/21 11:02:16;;;;;;;12.93;8.88;;;;;;;-139.48;100.00;61774.03;5032911;28;20048;-70
2021/03/21 11:05:04;;;;;;;15.13;9.25;;;;;;;-139.48;100.00;61774.03;5031938;28;20044;-68
2021/03/21 11:08:18;;;;;;;13.32;8.82;;;;;;;-139.48;100.00;61774.03;5032002;28;20518;-70
2021/03/21 11:11:20;;;;;;;11.65;7.55;;;;;;;-139.48;100.00;61774.03;5033145;28;20056;-70
2021/03/21 11:14:52;;;;;;;11.30;8.52;;;;;;;-139.48;100.00;61774.03;5032844;28;20509;-70
2021/03/21 11:17:36;;;;;;;10.60;7.50;;;;;;;-139.48;100.00;61774.03;5032667;28;20044;-68
2021/03/21 11:20:24;;;;;;;14.65;8.90;;;;;;;-139.48;100.00;61774.03;5017638;28;20103;-70
2021/03/21 11:23:18;;;;;;;12.88;8.65;;;;;;;-139.48;100.00;61774.03;5017875;28;20067;-67
2021/03/21 11:26:18;;;;;;;14.82;9.07;;;;;;;-139.48;100.00;61774.03;5031473;28;20099;-69
2021/03/21 11:29:05;;;;;;;12.23;7.20;;;;;;;-139.48;100.00;61774.03;5032388;28;20107;-69
2021/03/21 11:31:52;;;;;;;13.38;9.48;;;;;;;-139.48;100.00;61774.03;5017391;28;20056;-69
2021/03/21 11:34:36;;;;;;;14.52;9.82;;;;;;;-139.48;100.00;61774.03;5031431;28;20088;-69
2021/03/21 11:37:28;;;;;;;12.98;9.18;;;;;;;-139.48;100.00;61774.03;5017584;28;20103;-70
2021/03/21 11:40:20;;;;;;;12.82;9.13;;;;;;;-139.48;100.00;61774.03;5032617;28;20115;-69
2021/03/21 11:43:28;;;;;;;12.23;9.20;;;;;;;-139.48;100.00;61774.03;5017401;28;20083;-68
2021/03/21 11:46:25;;;;;;;13.30;7.93;;;;;;;-139.48;100.00;61774.03;5017541;28;20064;-71
2021/03/21 11:49:09;;;;;;;12.65;9.15;;;;;;;-139.48;100.00;61774.03;5032283;28;20052;-70
2021/03/21 11:51:59;;;;;;;;;;;;;;;-139.48;100.00;61774.03;5032735;28;20417;-68
2021/03/21 11:54:44;;;;;;;13.95;7.82;;;;;;;-139.48;100.00;61774.03;5015784;28;20007;-70
2021/03/21 11:57:58;;;;;;;17.70;10.30;;;;;;;-139.48;100.00;61774.03;5031149;28;20052;-70
2021/03/21 12:00:46;;;;;;;15.45;9.60;;;;;;;-139.48;100.00;61774.03;5012189;28;20060;-70
2021/03/21 12:03:43;;;;;;;14.07;9.30;;;;;;;-139.48;100.00;61774.03;5031634;28;20091;-70
2021/03/21 12:06:37;;;;;;;13.90;9.85;;;;;;;-139.48;100.00;61774.03;5031172;28;20043;-69
2021/03/21 12:09:28;;;;;;;11.85;8.40;;;;;;;-139.48;100.00;61774.03;5031932;28;20060;-70
2021/03/21 12:12:58;;;;;;;16.70;11.32;;;;;;;-139.48;100.00;61774.03;5017627;28;20049;-70
2021/03/21 12:15:42;;;;;;;15.88;10.52;;;;;;;-139.48;100.00;61774.03;5016950;28;20060;-69
2021/03/21 12:18:29;;;;;;;16.45;10.82;;;;;;;-139.48;100.00;61774.03;5019272;28;20098;-70
2021/03/21 12:21:14;;;;;;;16.60;9.82;;;;;;;-139.48;100.00;61774.03;5020917;28;20044;-69
2021/03/21 12:23:58;;;;;;;17.20;8.65;;;;;;;-139.48;100.00;61774.03;5034850;28;20128;-69
2021/03/21 12:26:59;;;;;;;15.07;10.40;;;;;;;-139.48;100.00;61774.03;5035647;28;20048;-69
2021/03/21 12:29:44;;;;;;;14.50;9.85;;;;;;;-139.48;100.00;61774.03;5020836;28;20045;-69
2021/03/21 12:32:40;;;;;;;16.90;10.15;;;;;;;-139.48;100.00;61774.03;5035598;28;20126;-69
2021/03/21 12:35:24;;;;;;;17.23;10.85;;;;;;;-139.48;100.00;61774.03;5020597;28;20044;-69
2021/03/21 12:38:10;;;;;;;;;;;;;;;-139.48;100.00;61774.03;5035777;28;20103;-69
2021/03/21 12:40:54;;;;;;;16.02;11.13;;;;;;;-139.48;100.00;61774.03;5035645;28;19963;-69
2021/03/21 12:43:39;;;;;;;13.73;9.55;;;;;;;-139.48;100.00;61774.03;5035386;28;20119;-69
2021/03/21 12:46:23;;;;;;;15.02;9.70;;;;;;;-139.48;100.00;61774.03;5034540;28;20067;-70
2021/03/21 12:49:11;;;;;;;13.95;6.40;;;;;;;-139.48;100.00;61774.03;5035282;28;20052;-70
2021/03/21 12:52:00;;;;;;;15.10;10.13;;;;;;;-139.48;100.00;61774.03;5034628;28;20406;-70
2021/03/21 12:54:46;;;;;;;15.57;10.32;;;;;;;-139.48;100.00;61774.03;5020114;28;20407;-69
2021/03/21 12:57:30;;;;;;;17.30;9.13;;;;;;;-139.48;100.00;61774.03;5020338;28;20110;-69
2021/03/21 13:00:24;;;;;;;13.75;10.23;;;;;;;-139.48;100.00;61774.03;5035029;28;20107;-70
2021/03/21 13:03:21;;;;;;;19.23;11.70;;;;;;;-139.48;100.00;61774.03;5020333;28;20545;-69
2021/03/21 13:06:06;;;;;;;14.05;9.07;;;;;;;-139.48;100.00;61774.03;5035143;28;20095;-69